Time;durP1;ratioP1;P1;durP2;ratioP2;P2;SDS_P1;SDS_P2;PMS_P1;PMS_P2;Temp;Humidity;BMP_temperature;BMP_pressure;BME280_temperature;BME280_humidity;BME280_pressure;Samples;Min_cycle;Max_cycle;Signal;HPM_P1;HPM_P2
2023/05/16 00:00:15;;;;;;;;;;;;;;;9.55;95.44;101933.66;5045336;27;19920;-44
2023/05/16 00:02:41;;;;;;;;;;;;;;;9.52;95.41;101929.22;5032076;27;19929;-45
2023/05/16 00:05:06;;;;;;;;;;;;;;;9.51;95.51;101932.59;5038419;27;20490;-44
2023/05/16 00:07:32;;;;;;;;;;;;;;;9.54;95.38;101929.31;5027197;28;20290;-43
2023/05/16 00:09:57;;;;;;;;;;;;;;;9.46;95.35;101936.63;5028756;28;19917;-45
2023/05/16 00:12:23;;;;;;;;;;;;;;;9.46;94.86;101922.91;5024538;28;20315;-43
2023/05/16 00:14:50;;;;;;;;;;;;;;;9.41;94.83;101930.41;5027046;28;19964;-44
2023/05/16 00:17:16;;;;;;;;;;;;;;;9.50;94.49;101930.84;5032763;27;19924;-44
2023/05/16 00:19:43;;;;;;;;;;;;;;;9.36;94.50;101932.72;5026682;28;19920;-45
2023/05/16 00:22:10;;;;;;;;;;;;;;;9.28;94.75;101939.19;5026705;28;19921;-43
2023/05/16 00:24:35;;;;;;;;;;;;;;;9.24;94.65;101937.25;5025172;28;19921;-43
2023/05/16 00:27:02;;;;;;;;;;;;;;;9.24;94.47;101933.81;5028286;28;19925;-44
2023/05/16 00:29:28;;;;;;;;;;;;;;;9.08;95.15;101945.84;5023524;27;19929;-44
2023/05/16 00:31:53;;;;;;;;;;;;;;;9.02;95.01;101937.84;5025655;28;20022;-43
2023/05/16 00:34:20;;;;;;;;;;;;;;;9.01;95.30;101940.34;5028594;28;19929;-44
2023/05/16 00:36:45;;;;;;;;;;;;;;;8.97;95.22;101940.97;5031986;27;19921;-43
2023/05/16 00:39:10;;;;;;;;;;;;;;;8.97;95.17;101938.41;5046564;28;19921;-44
2023/05/16 00:41:35;;;;;;;;;;;;;;;8.84;95.13;101939.44;5031940;28;20383;-44
2023/05/16 00:44:01;;;;;;;;;;;;;;;8.78;95.50;101942.56;5031799;28;19969;-44
2023/05/16 00:46:26;;;;;;;;;;;;;;;8.77;95.38;101942.50;5044158;28;20380;-46
2023/05/16 00:48:51;;;;;;;;;;;;;;;8.78;95.27;101941.69;5030948;28;20315;-45
2023/05/16 00:51:17;;;;;;;;;;;;;;;8.67;95.39;101942.81;5031124;28;19921;-45
2023/05/16 00:53:42;;;;;;;;;;;;;;;8.63;95.35;101940.91;5058976;28;19930;-45
2023/05/16 00:56:08;;;;;;;;;;;;;;;8.55;95.54;101941.38;5042683;28;19923;-46
2023/05/16 00:58:33;;;;;;;;;;;;;;;8.49;96.04;101942.72;5036786;28;20379;-44
2023/05/16 01:01:00;;;;;;;;;;;;;;;8.45;95.68;101944.25;5034293;28;19929;-44
2023/05/16 01:03:26;;;;;;;;;;;;;;;8.36;95.66;101946.28;5044289;28;19925;-45
2023/05/16 01:05:52;;;;;;;;;;;;;;;8.35;95.84;101947.06;5026414;28;19922;-46
2023/05/16 01:08:18;;;;;;;;;;;;;;;8.31;95.78;101950.25;5029512;28;20059;-45
2023/05/16 01:10:49;;;;;;;;;;;;;;;8.24;96.05;101950.72;5026184;28;20012;-43
2023/05/16 01:13:23;;;;;;;;;;;;;;;8.17;96.58;101951.19;5025385;28;19960;-43
2023/05/16 01:16:08;;;;;;;;;;;;;;;8.13;96.53;101952.72;5024382;28;19942;-44
2023/05/16 01:18:49;;;;;;;;;;;;;;;8.10;96.47;101959.34;5025542;28;19913;-44
2023/05/16 01:21:16;;;;;;;;;;;;;;;8.06;96.06;101961.72;5021471;28;19938;-43
2023/05/16 01:23:48;;;;;;;;;;;;;;;7.99;96.64;101957.06;5025705;28;20347;-43
2023/05/16 01:26:23;;;;;;;;;;;;;;;8.00;96.34;101958.81;5028039;28;19976;-56
2023/05/16 01:28:50;;;;;;;;;;;;;;;7.92;96.13;101956.63;5026220;28;19917;-56
2023/05/16 01:31:15;;;;;;;;;;;;;;;7.88;96.73;101958.13;5025786;28;19914;-56
2023/05/16 01:33:41;;;;;;;;;;;;;;;7.84;96.47;101963.88;5025975;28;20307;-56
2023/05/16 01:36:30;;;;;;;;;;;;;;;7.82;96.32;101968.03;5019304;28;19921;-56
2023/05/16 01:39:01;;;;;;;;;;;;;;;7.77;96.27;101965.22;5018221;28;19960;-56
2023/05/16 01:41:35;;;;;;;;;;;;;;;7.73;96.44;101964.97;5026905;28;19921;-56
2023/05/16 01:44:03;;;;;;;;;;;;;;;7.75;95.92;101968.47;5041225;28;19925;-56
2023/05/16 01:46:33;;;;;;;;;;;;;;;7.70;96.24;101969.88;5049391;28;19917;-56
2023/05/16 01:49:15;;;;;;;;;;;;;;;7.61;96.45;101962.56;5035952;28;19917;-56
2023/05/16 01:51:41;;;;;;;;;;;;;;;7.58;96.79;101969.19;5030164;28;20015;-57
2023/05/16 01:54:10;;;;;;;;;;;;;;;7.53;96.69;101974.94;5026035;28;20360;-56
2023/05/16 01:56:36;;;;;;;;;;;;;;;7.46;96.82;101975.38;5042909;27;20012;-56
2023/05/16 01:59:01;;;;;;;;;;;;;;;7.44;96.87;101978.63;5029541;28;20407;-57
2023/05/16 02:01:28;;;;;;;;;;;;;;;7.38;97.30;101974.03;5052380;27;19935;-57
2023/05/16 02:03:54;;;;;;;;;;;;;;;7.36;97.25;101985.88;5041145;27;19925;-56
2023/05/16 02:06:19;;;;;;;;;;;;;;;7.32;97.21;101977.91;5026102;28;19947;-56
2023/05/16 02:08:44;;;;;;;;;;;;;;;7.26;97.17;101989.53;5028795;27;19979;-56
2023/05/16 02:11:10;;;;;;;;;;;;;;;7.22;97.97;101985.06;5021827;27;19970;-57
2023/05/16 02:13:35;;;;;;;;;;;;;;;7.17;97.56;101988.13;5022473;27;19951;-56
2023/05/16 02:16:00;;;;;;;;;;;;;;;7.10;97.91;101988.53;5024296;27;20375;-56
2023/05/16 02:18:27;;;;;;;;;;;;;;;7.07;98.11;101981.56;5030753;27;20356;-56
2023/05/16 02:20:52;;;;;;;;;;;;;;;7.03;98.07;101987.28;5026312;28;20015;-55
2023/05/16 02:23:18;;;;;;;;;;;;;;;7.01;98.21;101985.44;5022547;27;20016;-56
2023/05/16 02:25:43;;;;;;;;;;;;;;;6.97;97.93;101992.91;5023980;28;19925;-56
2023/05/16 02:28:08;;;;;;;;;;;;;;;6.92;98.80;101986.66;5026004;27;19927;-56
2023/05/16 02:30:33;;;;;;;;;;;;;;;6.89;99.54;101986.47;5024876;27;19921;-56
2023/05/16 02:32:59;;;;;;;;;;;;;;;6.87;98.46;101985.50;5023258;28;19929;-56
2023/05/16 02:35:24;;;;;;;;;;;;;;;6.88;98.93;101984.69;5022111;27;19921;-57
2023/05/16 02:37:49;;;;;;;;;;;;;;;6.87;98.54;101989.72;5036816;27;19928;-57
2023/05/16 02:40:15;;;;;;;;;;;;;;;6.83;99.44;101986.09;5027813;28;19996;-57
2023/05/16 02:42:40;;;;;;;;;;;;;;;6.83;98.77;101998.88;5021958;28;19925;-55
2023/05/16 02:45:05;;;;;;;;;;;;;;;6.81;98.73;101997.03;5023083;28;19932;-56
2023/05/16 02:47:30;;;;;;;;;;;;;;;6.78;99.51;101999.38;5023716;28;19936;-56
2023/05/16 02:49:56;;;;;;;;;;;;;;;6.76;99.20;101996.72;5021588;27;19992;-56
2023/05/16 02:52:21;;;;;;;;;;;;;;;6.72;99.25;102008.44;5021268;27;19921;-56
2023/05/16 02:54:46;;;;;;;;;;;;;;;6.75;99.22;102015.41;5043430;27;19931;-56
2023/05/16 02:57:12;;;;;;;;;;;;;;;6.69;100.00;102018.47;5058056;27;19921;-57
2023/05/16 02:59:37;;;;;;;;;;;;;;;6.69;99.28;102012.50;5046949;27;19921;-56
2023/05/16 03:02:02;;;;;;;;;;;;;;;6.66;100.00;102017.38;5027262;28;20415;-57
2023/05/16 03:04:28;;;;;;;;;;;;;;;6.64;99.91;102021.53;5027642;28;20340;-56
2023/05/16 03:06:53;;;;;;;;;;;;;;;6.63;99.86;102023.22;5029912;27;19921;-56
2023/05/16 03:09:18;;;;;;;;;;;;;;;6.61;99.88;102023.88;5027868;28;19920;-55
2023/05/16 03:11:44;;;;;;;;;;;;;;;6.58;99.66;102027.16;5026823;28;19921;-55
2023/05/16 03:14:09;;;;;;;;;;;;;;;6.58;99.47;102026.25;5028152;28;19925;-57
2023/05/16 03:16:37;;;;;;;;;;;;;;;6.57;99.77;102029.63;5028120;28;20390;-57
2023/05/16 03:19:02;;;;;;;;;;;;;;;6.55;100.00;102038.84;5029551;28;19918;-56
2023/05/16 03:21:28;;;;;;;;;;;;;;;6.53;100.00;102032.75;5026194;28;19948;-57
2023/05/16 03:23:53;;;;;;;;;;;;;;;6.52;100.00;102038.66;5031297;27;19928;-57
2023/05/16 03:26:20;;;;;;;;;;;;;;;6.52;100.00;102038.66;5027892;28;19975;-56
2023/05/16 03:28:45;;;;;;;;;;;;;;;6.49;100.00;102033.34;5039993;28;19917;-55
2023/05/16 03:31:10;;;;;;;;;;;;;;;6.50;100.00;102037.69;5057600;27;19928;-57
2023/05/16 03:33:36;;;;;;;;;;;;;;;6.47;100.00;102025.59;5027107;27;19952;-56
2023/05/16 03:36:01;;;;;;;;;;;;;;;6.45;100.00;102028.03;5043535;27;20033;-56
2023/05/16 03:38:26;;;;;;;;;;;;;;;6.47;99.94;102030.69;5029169;28;20003;-55
2023/05/16 03:40:51;;;;;;;;;;;;;;;6.43;100.00;102034.75;5028810;28;19944;-57
2023/05/16 03:43:17;;;;;;;;;;;;;;;6.41;100.00;102041.41;5040499;27;20394;-56
2023/05/16 03:45:43;;;;;;;;;;;;;;;6.41;100.00;102040.53;5033850;27;20313;-56
2023/05/16 03:48:09;;;;;;;;;;;;;;;6.40;100.00;102043.88;5030912;28;19953;-57
2023/05/16 03:50:36;;;;;;;;;;;;;;;6.38;100.00;102041.22;5043909;27;19956;-56
2023/05/16 03:53:01;;;;;;;;;;;;;;;6.37;100.00;102057.34;5032116;27;19925;-56
2023/05/16 03:55:26;;;;;;;;;;;;;;;6.35;100.00;102061.44;5044931;27;19928;-56
2023/05/16 03:57:52;;;;;;;;;;;;;;;6.35;100.00;102063.13;5025215;27;20011;-56
2023/05/16 04:00:17;;;;;;;;;;;;;;;6.35;100.00;102055.47;5043528;27;20030;-56
2023/05/16 04:02:42;;;;;;;;;;;;;;;6.34;100.00;102059.69;5046911;27;19925;-56
2023/05/16 04:05:08;;;;;;;;;;;;;;;6.35;100.00;102061.44;5022867;28;19970;-56
2023/05/16 04:07:34;;;;;;;;;;;;;;;6.35;100.00;102058.91;5026186;28;19971;-56
2023/05/16 04:09:59;;;;;;;;;;;;;;;6.36;100.00;102068.31;5026274;28;19966;-57
2023/05/16 04:12:25;;;;;;;;;;;;;;;6.38;100.00;102064.22;5025976;28;19925;-56
2023/05/16 04:14:50;;;;;;;;;;;;;;;6.40;100.00;102062.63;5030948;27;19964;-56
2023/05/16 04:17:15;;;;;;;;;;;;;;;6.42;100.00;102061.06;5027238;28;19924;-56
2023/05/16 04:19:40;;;;;;;;;;;;;;;6.44;100.00;102069.72;5025231;28;19917;-56
2023/05/16 04:22:06;;;;;;;;;;;;;;;6.51;100.00;102067.56;5025894;28;20427;-57
2023/05/16 04:24:31;;;;;;;;;;;;;;;6.54;100.00;102072.84;5024834;28;20456;-57
2023/05/16 04:26:57;;;;;;;;;;;;;;;6.61;100.00;102075.91;5027061;28;19917;-57
2023/05/16 04:29:22;;;;;;;;;;;;;;;6.62;100.00;102076.78;5026426;28;19917;-57
2023/05/16 04:31:47;;;;;;;;;;;;;;;6.64;100.00;102077.75;5054525;27;19920;-56
2023/05/16 04:34:14;;;;;;;;;;;;;;;6.70;100.00;102083.25;5036598;27;19921;-56
2023/05/16 04:36:40;;;;;;;;;;;;;;;6.70;100.00;102081.59;5032772;27;20028;-56
2023/05/16 04:39:06;;;;;;;;;;;;;;;6.78;100.00;102087.16;5022722;28;20003;-56
2023/05/16 04:41:32;;;;;;;;;;;;;;;6.91;100.00;102082.03;5044155;28;20348;-57
2023/05/16 04:43:57;;;;;;;;;;;;;;;7.06;99.08;102091.47;5043787;28;19919;-56
2023/05/16 04:46:23;;;;;;;;;;;;;;;7.15;99.00;102098.00;5042773;28;19927;-56
2023/05/16 04:48:48;;;;;;;;;;;;;;;7.23;98.18;102090.81;5031530;28;19925;-56
2023/05/16 04:51:13;;;;;;;;;;;;;;;7.27;98.61;102097.88;5031894;28;19928;-56
2023/05/16 04:53:39;;;;;;;;;;;;;;;7.38;97.63;102098.53;5039370;28;19921;-56
2023/05/16 04:56:04;;;;;;;;;;;;;;;7.45;97.57;102098.09;5046658;28;19917;-57
2023/05/16 04:58:30;;;;;;;;;;;;;;;7.55;97.16;102103.00;5028197;28;20383;-57
2023/05/16 05:00:55;;;;;;;;;;;;;;;7.64;96.86;102100.09;5044319;28;19927;-56
2023/05/16 05:03:21;;;;;;;;;;;;;;;8.05;96.06;102115.34;5043640;28;19928;-55
2023/05/16 05:05:46;;;;;;;;;;;;;;;8.66;95.04;102102.59;5035051;28;19925;-56
2023/05/16 05:08:12;;;;;;;;;;;;;;;9.08;91.87;102099.78;5032906;28;19925;-57
2023/05/16 05:10:37;;;;;;;;;;;;;;;9.19;91.79;102105.50;5031781;28;19917;-55
2023/05/16 05:13:02;;;;;;;;;;;;;;;9.53;91.49;102108.19;5028982;28;19921;-57
2023/05/16 05:15:27;;;;;;;;;;;;;;;9.91;87.55;102107.56;5035057;28;20376;-57
2023/05/16 05:17:53;;;;;;;;;;;;;;;10.37;87.84;102103.84;5032178;28;19973;-55
2023/05/16 05:20:18;;;;;;;;;;;;;;;10.68;85.18;102112.25;5029095;28;19936;-56
2023/05/16 05:22:43;;;;;;;;;;;;;;;10.89;84.52;102116.63;5039825;28;20375;-56
2023/05/16 05:25:09;;;;;;;;;;;;;;;11.11;81.38;102115.94;5035612;28;19929;-56
2023/05/16 05:27:34;;;;;;;;;;;;;;;11.18;84.08;102111.13;5052382;28;19930;-57
2023/05/16 05:29:59;;;;;;;;;;;;;;;11.48;79.59;102113.31;5023487;28;19921;-57
2023/05/16 05:32:25;;;;;;;;;;;;;;;11.86;83.68;102108.97;5026428;28;19929;-56
2023/05/16 05:34:51;;;;;;;;;;;;;;;11.95;78.46;102120.56;5029716;27;20375;-56
2023/05/16 05:37:16;;;;;;;;;;;;;;;11.84;77.89;102126.06;5025810;28;19925;-57
2023/05/16 05:39:41;;;;;;;;;;;;;;;11.90;78.92;102127.22;5027586;28;20288;-57
2023/05/16 05:42:07;;;;;;;;;;;;;;;12.24;78.28;102123.44;5027323;27;19962;-57
2023/05/16 05:44:32;;;;;;;;;;;;;;;12.30;75.12;102127.16;5040038;27;20002;-51
2023/05/16 05:46:57;;;;;;;;;;;;;;;12.47;77.75;102133.00;5046839;27;20260;-55
2023/05/16 05:49:23;;;;;;;;;;;;;;;12.62;75.57;102130.19;5027265;28;19956;-53
2023/05/16 05:51:51;;;;;;;;;;;;;;;12.94;75.60;102134.03;5042689;27;20291;-53
2023/05/16 05:54:16;;;;;;;;;;;;;;;13.33;77.15;102133.78;5027931;27;19918;-54
2023/05/16 05:56:41;;;;;;;;;;;;;;;13.71;72.32;102135.19;5027442;28;19933;-53
2023/05/16 05:59:07;;;;;;;;;;;;;;;14.11;72.14;102144.31;5029149;28;20367;-53
2023/05/16 06:01:32;;;;;;;;;;;;;;;14.32;69.12;102141.56;5026054;28;20329;-53
2023/05/16 06:03:57;;;;;;;;;;;;;;;14.43;69.46;102141.06;5028071;28;19970;-57
2023/05/16 06:06:23;;;;;;;;;;;;;;;14.41;69.88;102142.75;5038523;28;20016;-56
2023/05/16 06:08:48;;;;;;;;;;;;;;;14.53;71.15;102144.88;5036624;27;19974;-57
2023/05/16 06:11:13;;;;;;;;;;;;;;;14.60;65.92;102149.44;5016387;28;20022;-56
2023/05/16 06:13:38;;;;;;;;;;;;;;;14.65;64.49;102149.59;5026609;28;19925;-55
2023/05/16 06:16:04;;;;;;;;;;;;;;;14.46;69.06;102150.66;5028017;28;19921;-54
2023/05/16 06:18:29;;;;;;;;;;;;;;;14.48;67.46;102146.44;5027824;28;19929;-56
2023/05/16 06:20:55;;;;;;;;;;;;;;;14.66;63.79;102148.75;5024353;27;20459;-55
2023/05/16 06:23:20;;;;;;;;;;;;;;;14.90;68.02;102157.28;5027533;28;20366;-56
2023/05/16 06:25:46;;;;;;;;;;;;;;;14.74;65.43;102160.22;5028640;28;19962;-55
2023/05/16 06:28:11;;;;;;;;;;;;;;;14.84;64.06;102159.69;5030208;28;20342;-55
2023/05/16 06:30:36;;;;;;;;;;;;;;;14.54;64.92;102157.00;5027771;28;19921;-55
2023/05/16 06:33:02;;;;;;;;;;;;;;;14.53;65.15;102160.41;5028622;27;20012;-55
2023/05/16 06:35:27;;;;;;;;;;;;;;;14.57;65.01;102158.81;5028169;28;19961;-55
2023/05/16 06:37:52;;;;;;;;;;;;;;;14.59;66.32;102162.31;5025879;28;20306;-54
2023/05/16 06:40:17;;;;;;;;;;;;;;;14.62;63.59;102167.59;5049521;27;19925;-54
2023/05/16 06:42:43;;;;;;;;;;;;;;;14.77;60.41;102169.81;5022965;27;20469;-56
2023/05/16 06:45:09;;;;;;;;;;;;;;;14.68;58.10;102166.09;5028457;28;19978;-53
2023/05/16 06:47:34;;;;;;;;;;;;;;;14.47;62.10;102160.22;5026107;28;19917;-55
2023/05/16 06:49:59;;;;;;;;;;;;;;;14.47;61.98;102157.63;5035437;27;19932;-54
2023/05/16 06:52:25;;;;;;;;;;;;;;;14.56;59.75;102164.81;5025976;28;21815;-55
2023/05/16 06:54:50;;;;;;;;;;;;;;;14.75;59.39;102162.88;5027205;28;19929;-54
2023/05/16 06:57:16;;;;;;;;;;;;;;;14.96;59.03;102160.06;5023780;28;19921;-53
2023/05/16 06:59:41;;;;;;;;;;;;;;;15.01;57.59;102162.78;5046616;27;19919;-54
2023/05/16 07:02:07;;;;;;;;;;;;;;;14.94;56.30;102156.56;5038477;27;19947;-54
2023/05/16 07:04:33;;;;;;;;;;;;;;;14.85;56.38;102163.16;5026748;27;19956;-53
2023/05/16 07:06:58;;;;;;;;;;;;;;;14.47;56.12;102165.41;5023751;28;19922;-54
2023/05/16 07:09:23;;;;;;;;;;;;;;;14.49;57.95;102159.44;5027170;28;19928;-54
2023/05/16 07:11:49;;;;;;;;;;;;;;;14.41;56.42;102166.03;5028810;28;19966;-53
2023/05/16 07:14:14;;;;;;;;;;;;;;;14.42;59.98;102167.78;5027731;27;19929;-49
2023/05/16 07:19:07;;;;;;;;;;;;;;;14.83;57.03;102170.88;4997144;28;20385;-45
2023/05/16 07:21:32;;;;;;;;;;;;;;;14.69;59.19;102178.22;5003107;28;19936;-46
2023/05/16 07:23:57;;;;;;;;;;;;;;;14.71;58.98;102180.84;5006195;28;19922;-44
2023/05/16 07:26:23;;;;;;;;;;;;;;;14.95;60.48;102172.97;5005897;28;19918;-44
2023/05/16 07:28:49;;;;;;;;;;;;;;;15.10;59.88;102177.72;5007738;28;20378;-44
2023/05/16 07:31:15;;;;;;;;;;;;;;;15.28;55.45;102178.28;5014492;28;19917;-45
2023/05/16 07:33:41;;;;;;;;;;;;;;;15.27;58.92;102185.19;5007524;28;19925;-44
2023/05/16 07:36:06;;;;;;;;;;;;;;;15.01;55.86;102183.53;5005605;28;19922;-46
2023/05/16 07:38:32;;;;;;;;;;;;;;;14.70;59.05;102185.16;4998843;28;19929;-46
2023/05/16 07:40:57;;;;;;;;;;;;;;;14.51;56.66;102185.38;5002561;28;19990;-44
2023/05/16 07:43:22;;;;;;;;;;;;;;;14.23;59.63;102188.72;4996713;28;19921;-44
2023/05/16 07:45:47;;;;;;;;;;;;;;;14.29;56.88;102188.03;5009244;28;19921;-46
2023/05/16 07:48:13;;;;;;;;;;;;;;;14.20;57.11;102186.03;5008676;28;20331;-44
2023/05/16 07:50:38;;;;;;;;;;;;;;;13.87;57.65;102191.75;5011312;28;19925;-43
2023/05/16 07:53:03;;;;;;;;;;;;;;;13.72;58.58;102191.22;5006281;28;19961;-45
2023/05/16 07:55:29;;;;;;;;;;;;;;;13.83;55.99;102189.00;5005512;28;20451;-44
2023/05/16 07:57:54;;;;;;;;;;;;;;;13.92;58.11;102186.75;5005721;28;19932;-44
2023/05/16 08:00:20;;;;;;;;;;;;;;;14.00;58.10;102194.78;5008302;28;20047;-44
2023/05/16 08:02:45;;;;;;;;;;;;;;;14.02;58.82;102187.97;5005950;28;19929;-43
2023/05/16 08:05:11;;;;;;;;;;;;;;;13.83;58.73;102192.50;5005325;28;20240;-43
2023/05/16 08:07:36;;;;;;;;;;;;;;;13.55;57.91;102192.31;5000823;28;19930;-42
2023/05/16 08:10:02;;;;;;;;;;;;;;;13.50;59.11;102201.59;5006098;28;19986;-45
2023/05/16 08:12:29;;;;;;;;;;;;;;;13.65;59.33;102194.38;5006826;28;19917;-44
2023/05/16 08:14:55;;;;;;;;;;;;;;;13.58;58.61;102195.88;5004826;28;19929;-45
2023/05/16 08:17:20;;;;;;;;;;;;;;;13.70;58.37;102198.03;5005451;28;20029;-43
2023/05/16 08:19:45;;;;;;;;;;;;;;;13.92;57.54;102197.13;4974128;28;19950;-51
2023/05/16 08:22:10;;;;;;;;;;;;;;;14.04;56.86;102194.09;5006201;28;19921;-52
2023/05/16 08:24:36;;;;;;;;;;;;;;;14.23;56.79;102193.88;5002983;28;19929;-53
2023/05/16 08:27:01;;;;;;;;;;;;;;;14.62;56.02;102193.47;4988024;28;19925;-54
2023/05/16 08:29:26;;;;;;;;;;;;;;;14.82;55.57;102188.97;5001996;28;20325;-53
2023/05/16 08:31:51;;;;;;;;;;;;;;;14.76;53.22;102194.81;4999959;28;19933;-53
2023/05/16 08:34:17;;;;;;;;;;;;;;;14.65;54.55;102186.69;4996144;28;19926;-53
2023/05/16 08:36:42;;;;;;;;;;;;;;;14.46;55.40;102184.31;5028717;28;19922;-54
2023/05/16 08:39:10;;;;;;;;;;;;;;;14.40;54.37;102184.97;5006614;28;20387;-53
2023/05/16 08:41:35;;;;;;;;;;;;;;;14.38;52.91;102186.66;5006249;28;19956;-51
2023/05/16 08:44:01;;;;;;;;;;;;;;;14.16;54.32;102187.63;5005570;28;20014;-54
2023/05/16 08:46:27;;;;;;;;;;;;;;;13.83;54.41;102183.84;5010000;28;19928;-51
2023/05/16 08:48:53;;;;;;;;;;;;;;;13.92;55.89;102179.88;5000346;28;19936;-52
2023/05/16 08:51:19;;;;;;;;;;;;;;;13.89;55.61;102179.78;5005564;28;20170;-54
2023/05/16 08:53:49;;;;;;;;;;;;;;;13.87;56.38;102186.59;5002158;28;19922;-52
2023/05/16 08:56:16;;;;;;;;;;;;;;;14.05;54.15;102180.31;5004544;28;19917;-55
2023/05/16 08:58:41;;;;;;;;;;;;;;;14.17;53.84;102175.56;5005883;28;19922;-53
2023/05/16 09:01:08;;;;;;;;;;;;;;;14.14;54.02;102175.47;5006442;28;19913;-50
2023/05/16 09:03:37;;;;;;;;;;;;;;;14.30;52.52;102169.97;5005981;28;19962;-54
2023/05/16 09:06:05;;;;;;;;;;;;;;;14.42;52.23;102183.31;5007236;28;19932;-53
2023/05/16 09:08:31;;;;;;;;;;;;;;;14.70;54.00;102179.09;4994759;28;19960;-43
2023/05/16 09:10:56;;;;;;;;;;;;;;;14.84;54.70;102177.81;5007613;28;20410;-44
2023/05/16 09:13:23;;;;;;;;;;;;;;;14.64;56.02;102190.13;5004860;28;19933;-43
2023/05/16 09:16:07;;;;;;;;;;;;;;;14.33;55.36;102193.38;5015207;28;19918;-44
2023/05/16 09:18:32;;;;;;;;;;;;;;;13.89;56.33;102194.41;4982978;28;20058;-43
2023/05/16 09:20:58;;;;;;;;;;;;;;;13.63;57.71;102198.63;5013186;28;20024;-43
2023/05/16 09:23:24;;;;;;;;;;;;;;;13.57;58.67;102196.69;5006924;28;19932;-44
2023/05/16 09:25:52;;;;;;;;;;;;;;;13.51;55.17;102198.19;5006743;28;19921;-44
2023/05/16 09:28:17;;;;;;;;;;;;;;;13.43;56.20;102194.44;5000025;28;19922;-44
2023/05/16 09:30:44;;;;;;;;;;;;;;;13.41;55.45;102195.28;5004541;28;19929;-45
2023/05/16 09:33:10;;;;;;;;;;;;;;;13.35;56.35;102189.88;5006708;28;19925;-44
2023/05/16 09:35:36;;;;;;;;;;;;;;;13.61;55.87;102188.25;5011144;28;19917;-45
2023/05/16 09:38:01;;;;;;;;;;;;;;;13.83;51.46;102191.59;5006795;28;20306;-46
2023/05/16 09:40:26;;;;;;;;;;;;;;;13.93;53.76;102184.22;5005757;28;19928;-45
2023/05/16 09:43:05;;;;;;;;;;;;;;;14.14;51.47;102185.81;5007067;28;20006;-44
2023/05/16 09:45:31;;;;;;;;;;;;;;;14.26;51.66;102177.56;5006314;28;20406;-45
2023/05/16 09:48:06;;;;;;;;;;;;;;;14.41;49.90;102181.56;5009139;28;19921;-45
2023/05/16 09:50:33;;;;;;;;;;;;;;;14.67;49.86;102181.56;5022262;28;20112;-45
2023/05/16 09:52:58;;;;;;;;;;;;;;;14.82;50.75;102176.88;5001831;28;20063;-45
2023/05/16 09:55:23;;;;;;;;;;;;;;;14.90;51.64;102172.81;5000765;28;20019;-44
2023/05/16 09:57:49;;;;;;;;;;;;;;;14.68;49.80;102184.22;5002231;28;20367;-43
2023/05/16 10:00:14;;;;;;;;;;;;;;;14.39;51.85;102187.53;5020806;28;20055;-46
2023/05/16 10:02:40;;;;;;;;;;;;;;;14.21;51.20;102190.38;5009927;28;20260;-43
2023/05/16 10:05:06;;;;;;;;;;;;;;;14.13;51.76;102190.09;5001687;28;19922;-44
2023/05/16 10:07:33;;;;;;;;;;;;;;;14.28;52.81;102192.34;4991298;28;19929;-45
2023/05/16 10:09:59;;;;;;;;;;;;;;;14.43;51.98;102179.91;5006394;28;19924;-44
2023/05/16 10:12:28;;;;;;;;;;;;;;;14.78;50.91;102177.63;5006289;28;19925;-45
2023/05/16 10:14:54;;;;;;;;;;;;;;;15.00;49.41;102174.00;5003183;28;19945;-45
2023/05/16 10:17:20;;;;;;;;;;;;;;;15.14;47.63;102175.28;5004074;28;20383;-46
2023/05/16 10:19:46;;;;;;;;;;;;;;;15.31;48.59;102173.19;5036925;28;19929;-45
2023/05/16 10:22:12;;;;;;;;;;;;;;;15.25;46.05;102170.44;5008214;28;19917;-48
2023/05/16 10:24:50;;;;;;;;;;;;;;;15.16;46.50;102181.38;5005674;28;20272;-44
2023/05/16 10:27:15;;;;;;;;;;;;;;;14.99;46.41;102186.06;5070651;28;20355;-46
2023/05/16 10:29:41;;;;;;;;;;;;;;;14.95;48.95;102176.44;5007218;28;19926;-48
2023/05/16 10:32:07;;;;;;;;;;;;;;;15.09;49.00;102173.38;5009662;28;19917;-46
2023/05/16 10:34:32;;;;;;;;;;;;;;;15.08;47.48;102169.91;5006728;28;20402;-45
2023/05/16 10:36:58;;;;;;;;;;;;;;;15.05;48.95;102184.50;5006442;28;19922;-46
2023/05/16 10:39:24;;;;;;;;;;;;;;;15.25;48.94;102171.31;5007717;28;20306;-48
2023/05/16 10:41:49;;;;;;;;;;;;;;;15.28;48.41;102179.16;5022854;28;20390;-45
2023/05/16 10:44:16;;;;;;;;;;;;;;;15.35;46.47;102172.47;5007431;28;19926;-45
2023/05/16 10:46:41;;;;;;;;;;;;;;;15.51;47.07;102173.78;5007665;28;20343;-46
2023/05/16 10:49:35;;;;;;;;;;;;;;;15.63;49.37;102170.69;5005989;28;19925;-46
2023/05/16 10:52:03;;;;;;;;;;;;;;;15.62;47.78;102180.19;5002020;28;19992;-46
2023/05/16 10:54:36;;;;;;;;;;;;;;;15.44;48.02;102180.50;5005576;28;19966;-47
2023/05/16 10:57:05;;;;;;;;;;;;;;;15.26;47.05;102175.66;5007557;28;19925;-46
2023/05/16 10:59:38;;;;;;;;;;;;;;;15.10;47.05;102172.53;5006003;28;19925;-47
2023/05/16 11:02:20;;;;;;;;;;;;;;;15.13;47.37;102175.25;5000945;28;20374;-45
2023/05/16 11:04:47;;;;;;;;;;;;;;;15.12;46.30;102173.50;5006824;28;20337;-45
2023/05/16 11:07:14;;;;;;;;;;;;;;;15.00;47.68;102179.19;5024391;28;19921;-45
2023/05/16 11:09:43;;;;;;;;;;;;;;;14.89;48.93;102181.44;5005414;28;19918;-46
2023/05/16 11:12:08;;;;;;;;;;;;;;;14.70;49.30;102190.31;5005971;28;19970;-45
2023/05/16 11:14:36;;;;;;;;;;;;;;;14.57;50.63;102190.75;5005882;28;20242;-46
2023/05/16 11:17:20;;;;;;;;;;;;;;;14.48;50.64;102191.31;5003205;28;19917;-46
2023/05/16 11:19:48;;;;;;;;;;;;;;;14.46;50.62;102189.50;5009029;28;19929;-48
2023/05/16 11:22:29;;;;;;;;;;;;;;;14.39;51.26;102184.94;5006165;28;19951;-45
2023/05/16 11:24:55;;;;;;;;;;;;;;;14.47;52.02;102175.75;5007839;28;20301;-47
2023/05/16 11:27:30;;;;;;;;;;;;;;;14.68;51.33;102181.63;5006386;28;19921;-46
2023/05/16 11:30:04;;;;;;;;;;;;;;;14.80;50.45;102186.31;5007959;28;19970;-46
2023/05/16 11:32:32;;;;;;;;;;;;;;;14.82;50.59;102174.31;5003371;28;20012;-46
2023/05/16 11:34:57;;;;;;;;;;;;;;;14.73;51.21;102184.34;5006900;28;19937;-47
2023/05/16 11:37:22;;;;;;;;;;;;;;;14.60;51.72;102184.78;5006397;28;19926;-46
2023/05/16 11:39:48;;;;;;;;;;;;;;;14.53;51.37;102186.31;5007944;28;19941;-46
2023/05/16 11:42:13;;;;;;;;;;;;;;;14.40;50.32;102184.09;5005937;28;19973;-45
2023/05/16 11:44:39;;;;;;;;;;;;;;;14.28;51.38;102184.56;5006355;28;19917;-45
2023/05/16 11:47:05;;;;;;;;;;;;;;;14.14;50.89;102191.88;5006126;28;19928;-48
2023/05/16 11:49:38;;;;;;;;;;;;;;;14.32;50.90;102181.28;5055258;28;19971;-46
2023/05/16 11:52:03;;;;;;;;;;;;;;;14.55;49.43;102187.22;5043441;28;20015;-46
2023/05/16 11:54:29;;;;;;;;;;;;;;;14.79;48.84;102183.66;5042938;28;19927;-46
2023/05/16 11:56:55;;;;;;;;;;;;;;;14.96;49.59;102183.38;5044052;28;19955;-45
2023/05/16 11:59:20;;;;;;;;;;;;;;;15.14;48.35;102177.00;5046334;28;19921;-45
2023/05/16 12:01:49;;;;;;;;;;;;;;;15.34;47.63;102180.19;5044681;28;19913;-47
2023/05/16 12:04:14;;;;;;;;;;;;;;;15.59;46.78;102186.94;5064115;28;19950;-46
2023/05/16 12:06:42;;;;;;;;;;;;;;;15.66;48.17;102183.75;5040200;28;19931;-46
2023/05/16 12:09:11;;;;;;;;;;;;;;;15.69;48.05;102192.47;5042119;28;20442;-44
2023/05/16 12:11:40;;;;;;;;;;;;;;;15.56;47.12;102191.22;5043760;28;19917;-45
2023/05/16 12:14:06;;;;;;;;;;;;;;;15.37;47.65;102198.41;5041239;28;19921;-46
2023/05/16 12:16:32;;;;;;;;;;;;;;;15.25;46.67;102192.03;5036637;28;20411;-46
2023/05/16 12:18:59;;;;;;;;;;;;;;;15.24;47.58;102194.59;5034883;28;19957;-46
2023/05/16 12:21:25;;;;;;;;;;;;;;;15.22;48.26;102191.06;5027568;28;19959;-47
2023/05/16 12:23:54;;;;;;;;;;;;;;;15.36;47.91;102199.25;5035626;28;19964;-47
2023/05/16 12:26:26;;;;;;;;;;;;;;;15.25;47.90;102194.63;5030238;28;19925;-46
2023/05/16 12:28:57;;;;;;;;;;;;;;;15.18;48.06;102194.41;5031436;28;19961;-45
2023/05/16 12:31:22;;;;;;;;;;;;;;;15.16;48.81;102199.50;5043931;28;19927;-46
2023/05/16 12:33:47;;;;;;;;;;;;;;;15.35;49.09;102207.84;5038793;28;19929;-47
2023/05/16 12:36:14;;;;;;;;;;;;;;;15.38;47.86;102202.78;5036155;28;19921;-45
2023/05/16 12:38:39;;;;;;;;;;;;;;;15.28;48.86;102206.78;5032383;28;19957;-45